Ogre, Latvia
Current Conditions -  °F | °C
As of 1:20 PM on Thursday 18 Dec 2014 (Local Time) from EVRA Reporting Station
Light Rain Light Rain  
Wind Chill: 29°   Ceiling: 600
Heat Index: 36°   Visibility: 5mi
Dew Point: 36°   Wind: 8mph
Humidity: 100%   Direction: 170°S
Pressure: 29.62"   Gusts: NA
Location:  56.81°N, 24.61°E
Report Text: EVRA 181020Z 17007KT 8000 -RA OVC006 02/02 Q1003 R18/190095 NOSIG
Loading
Personal Weather Stations






























Interactive Weather Map New forecast layout! Learn more

10-Day Weather Forecast

Advertisements
Track Severe Weather on mobile